DAUU/OGX METAR and TAF weather

Enter ICAO airport designator
Station Type Date Time Source
DAUU METAR 2023/02/05 13:00 UTC NOAA

DAUU 051300Z 00000KT CAVOK 16/M00 Q1026


Station Type Date Time Source
DAUU Decoded METAR 2023/02/05 13:00 UTC NOAA

Ouargla, Algeria (DAUU) 31-55N 005-24E 141M
Feb 05, 2023 - 08:00 AM EST / 2023.02.05 1300 UTC
Wind: Calm:0
Visibility: greater than 7 mile(s):0
Temperature: 60 F (16 C)
Dew Point: 32 F (0 C)
Relative Humidity: 33%
Pressure (altimeter): 30.30 in. Hg (1026 hPa)
ob: DAUU 051300Z 00000KT CAVOK 16/M00 Q1026
cycle: 13

Station Type Date Time Source
DAUU TAF 2017/11/09 18:03 UTC NOAA

TAF DAUU 091700Z 0918/1009 34012KT 9999 FEW040 SCT100 PROB40
TEMPO 0918/0924 34015G25KT 5000 -TSRA FEW036CB

Example: see airport list